createdAt,value
2023-02-23T00:00:28.386Z,7.53
2023-02-23T00:01:00.441Z,7.49
2023-02-23T00:01:32.028Z,7.51
2023-02-23T00:02:06.414Z,7.51
2023-02-23T00:02:39.052Z,7.52
2023-02-23T00:03:10.692Z,7.47
2023-02-23T00:03:42.499Z,7.48
2023-02-23T00:04:14.051Z,7.52
2023-02-23T00:04:45.655Z,7.51
2023-02-23T00:05:17.590Z,7.52
2023-02-23T00:05:49.138Z,7.50
2023-02-23T00:06:20.949Z,7.54
2023-02-23T00:06:53.386Z,7.54
2023-02-23T00:07:27.069Z,7.55
2023-02-23T00:07:59.069Z,7.58
2023-02-23T00:08:30.961Z,7.55
2023-02-23T00:09:10.581Z,7.55
2023-02-23T00:09:42.198Z,7.56
2023-02-23T00:10:14.962Z,7.57
2023-02-23T00:10:46.418Z,7.59
2023-02-23T00:11:19.119Z,7.56
2023-02-23T00:11:51.767Z,7.53
2023-02-23T00:12:24.057Z,7.55
2023-02-23T00:12:57.078Z,7.54
2023-02-23T00:13:28.612Z,7.48
2023-02-23T00:14:01.286Z,7.48
2023-02-23T00:14:33.338Z,7.53
2023-02-23T00:15:05.338Z,7.53
2023-02-23T00:15:36.954Z,7.54
2023-02-23T00:16:12.619Z,7.52
2023-02-23T00:16:45.429Z,7.46
2023-02-23T00:17:17.590Z,7.48
2023-02-23T00:17:49.072Z,7.47
2023-02-23T00:18:20.977Z,7.43
2023-02-23T00:19:00.457Z,7.47
2023-02-23T00:19:33.552Z,7.43
2023-02-23T00:20:13.292Z,7.43
2023-02-23T00:20:57.561Z,7.40
2023-02-23T00:21:31.820Z,7.40
2023-02-23T00:22:03.506Z,7.39
2023-02-23T00:22:42.394Z,7.39
2023-02-23T00:23:15.068Z,7.48
2023-02-23T00:23:54.932Z,7.51
2023-02-23T00:24:27.122Z,7.45
2023-02-23T00:24:59.645Z,7.39
2023-02-23T00:25:31.240Z,7.35
2023-02-23T00:26:04.444Z,7.37
2023-02-23T00:26:38.117Z,7.32
2023-02-23T00:27:12.703Z,7.33
2023-02-23T00:27:44.544Z,7.34
2023-02-23T00:28:16.525Z,7.32
2023-02-23T00:28:49.128Z,7.29
2023-02-23T00:29:22.738Z,7.32
2023-02-23T00:29:54.236Z,7.31
2023-02-23T00:30:26.478Z,7.32
2023-02-23T00:30:59.870Z,7.29
2023-02-23T00:31:31.970Z,7.25
2023-02-23T00:32:03.653Z,7.21
2023-02-23T00:32:35.413Z,7.22
2023-02-23T00:33:07.414Z,7.22
2023-02-23T00:33:40.124Z,7.23
2023-02-23T00:34:15.135Z,7.21
2023-02-23T00:34:49.597Z,7.22
2023-02-23T00:35:21.113Z,7.23
2023-02-23T00:35:52.614Z,7.22
2023-02-23T00:36:28.277Z,7.17
2023-02-23T00:36:59.762Z,7.16
2023-02-23T00:37:31.228Z,7.22
2023-02-23T00:38:02.747Z,7.20
2023-02-23T00:38:36.378Z,7.22
2023-02-23T00:39:31.805Z,7.21
2023-02-23T00:40:13.216Z,7.35
2023-02-23T00:40:45.961Z,7.36
2023-02-23T00:41:20.176Z,7.37
2023-02-23T00:41:53.201Z,7.29
2023-02-23T00:42:24.800Z,7.25
2023-02-23T00:42:58.175Z,7.23
2023-02-23T00:43:36.087Z,7.25
2023-02-23T00:44:07.584Z,7.23
2023-02-23T00:44:40.629Z,7.27
2023-02-23T00:45:15.366Z,7.22
2023-02-23T00:45:46.860Z,7.20
2023-02-23T00:46:21.258Z,7.18
2023-02-23T00:46:53.008Z,7.22
2023-02-23T00:47:24.584Z,7.19
2023-02-23T00:47:56.090Z,7.16
2023-02-23T00:48:28.685Z,7.15
2023-02-23T00:49:01.042Z,7.17
2023-02-23T00:49:33.290Z,7.13
2023-02-23T00:50:07.962Z,7.13
2023-02-23T00:50:41.464Z,7.15
2023-02-23T00:51:13.281Z,7.17
2023-02-23T00:51:45.032Z,7.17
2023-02-23T00:52:16.543Z,7.15
2023-02-23T00:52:48.048Z,7.11
2023-02-23T00:53:19.530Z,7.06
2023-02-23T00:53:54.398Z,7.08
2023-02-23T00:54:26.087Z,7.04
2023-02-23T00:54:57.569Z,7.07
2023-02-23T00:55:29.044Z,7.07
2023-02-23T00:56:00.576Z,7.10
2023-02-23T00:56:32.266Z,7.10
2023-02-23T00:57:03.860Z,7.10
2023-02-23T00:57:35.746Z,7.09
2023-02-23T00:58:09.603Z,7.06
2023-02-23T00:58:41.467Z,7.10
2023-02-23T00:59:14.124Z,7.11
2023-02-23T00:59:45.758Z,7.09
2023-02-23T01:00:20.400Z,7.08
2023-02-23T01:00:53.391Z,7.11
2023-02-23T01:01:26.484Z,7.15
2023-02-23T01:01:58.043Z,7.10
2023-02-23T01:02:32.590Z,7.04
2023-02-23T01:03:04.220Z,7.06
2023-02-23T01:03:36.384Z,7.10
2023-02-23T01:04:08.275Z,7.08
2023-02-23T01:04:39.854Z,7.03
2023-02-23T01:05:11.821Z,7.05
2023-02-23T01:05:43.969Z,7.03
2023-02-23T01:06:17.110Z,7.02
2023-02-23T01:06:48.849Z,7.01
2023-02-23T01:07:20.924Z,6.99
2023-02-23T01:07:54.194Z,6.99
2023-02-23T01:08:25.813Z,6.97
2023-02-23T01:08:58.903Z,7.00
2023-02-23T01:09:30.385Z,6.99
2023-02-23T01:10:01.895Z,6.96
2023-02-23T01:10:33.436Z,6.96
2023-02-23T01:11:13.282Z,6.94
2023-02-23T01:11:46.904Z,6.94
2023-02-23T01:12:19.549Z,6.95
2023-02-23T01:12:51.845Z,6.95
2023-02-23T01:13:24.218Z,6.94
2023-02-23T01:13:57.586Z,6.94
2023-02-23T01:14:29.619Z,6.96
2023-02-23T01:15:03.301Z,6.95
2023-02-23T01:15:44.280Z,6.94
2023-02-23T01:16:17.904Z,6.94
2023-02-23T01:16:49.431Z,6.94
2023-02-23T01:17:20.922Z,6.92
2023-02-23T01:17:52.448Z,6.98
2023-02-23T01:18:24.421Z,6.99
2023-02-23T01:19:00.199Z,7.03
2023-02-23T01:19:34.073Z,7.04
2023-02-23T01:20:17.584Z,7.03
2023-02-23T01:20:50.574Z,7.01
2023-02-23T01:21:25.380Z,6.99
2023-02-23T01:21:57.655Z,6.94
2023-02-23T01:22:29.164Z,6.90
2023-02-23T01:23:00.665Z,6.93
2023-02-23T01:23:32.386Z,6.87
2023-02-23T01:24:04.117Z,6.85
2023-02-23T01:24:35.834Z,6.75
2023-02-23T01:25:10.632Z,6.73
2023-02-23T01:25:43.937Z,6.69
2023-02-23T01:26:19.089Z,6.70
2023-02-23T01:26:50.568Z,6.74
2023-02-23T01:27:22.038Z,6.76
2023-02-23T01:27:54.442Z,6.77
2023-02-23T01:28:25.958Z,6.75
2023-02-23T01:29:00.645Z,6.71
2023-02-23T01:29:32.284Z,6.71
2023-02-23T01:30:04.065Z,6.71
2023-02-23T01:30:35.707Z,6.72
2023-02-23T01:31:10.185Z,6.71
2023-02-23T01:31:44.742Z,6.71
2023-02-23T01:32:16.384Z,6.72
2023-02-23T01:32:48.133Z,6.71
2023-02-23T01:33:19.895Z,6.71
2023-02-23T01:33:59.124Z,6.73
2023-02-23T01:34:30.598Z,6.72
2023-02-23T01:35:07.806Z,6.82
2023-02-23T01:35:40.012Z,6.86
2023-02-23T01:36:13.061Z,6.93
2023-02-23T01:36:45.020Z,6.86
2023-02-23T01:37:16.594Z,6.85
2023-02-23T01:37:49.748Z,6.82
2023-02-23T01:38:25.061Z,6.78
2023-02-23T01:38:57.417Z,6.80
2023-02-23T01:39:28.980Z,6.81
2023-02-23T01:40:00.437Z,6.83
2023-02-23T01:40:32.874Z,6.86
2023-02-23T01:41:09.466Z,6.86
2023-02-23T01:41:44.694Z,6.88
2023-02-23T01:42:16.191Z,6.91
2023-02-23T01:42:50.315Z,6.92
2023-02-23T01:43:28.270Z,6.90
2023-02-23T01:44:06.464Z,6.90
2023-02-23T01:44:40.170Z,6.95
2023-02-23T01:45:23.697Z,6.97
2023-02-23T01:45:56.568Z,6.97
2023-02-23T01:46:39.835Z,6.97
2023-02-23T01:47:14.188Z,6.91
2023-02-23T01:47:46.070Z,6.92
2023-02-23T01:48:21.151Z,6.97
2023-02-23T01:48:56.399Z,6.97
2023-02-23T01:49:29.698Z,7.01
2023-02-23T01:50:02.137Z,7.00
2023-02-23T01:50:42.877Z,7.00
2023-02-23T01:51:18.492Z,6.97
2023-02-23T01:51:53.943Z,6.96
2023-02-23T01:52:25.754Z,6.94
2023-02-23T01:53:00.077Z,6.97
2023-02-23T01:53:35.437Z,7.00
2023-02-23T01:54:15.829Z,6.98
2023-02-23T01:54:50.449Z,7.01
2023-02-23T01:55:24.540Z,7.01
2023-02-23T01:56:11.381Z,7.03
2023-02-23T01:56:45.891Z,7.00
2023-02-23T01:57:20.828Z,7.02
2023-02-23T01:58:00.796Z,7.00
2023-02-23T01:58:33.751Z,7.01
2023-02-23T01:59:06.676Z,7.02
2023-02-23T01:59:44.375Z,7.02
2023-02-23T02:00:19.991Z,7.04
2023-02-23T02:00:54.754Z,7.04
2023-02-23T02:01:29.525Z,7.07
2023-02-23T02:02:07.821Z,7.05
2023-02-23T02:02:39.701Z,7.05
2023-02-23T02:03:16.084Z,7.07
2023-02-23T02:03:57.689Z,7.07
2023-02-23T02:04:33.563Z,7.07
2023-02-23T02:05:13.298Z,7.11
2023-02-23T02:05:45.675Z,7.10
2023-02-23T02:06:18.427Z,7.12
2023-02-23T02:06:53.665Z,7.10
2023-02-23T02:07:29.265Z,7.08
2023-02-23T02:08:06.373Z,7.12
2023-02-23T02:08:45.399Z,7.10
2023-02-23T02:09:17.562Z,7.06
2023-02-23T02:10:09.134Z,7.06
2023-02-23T02:10:46.375Z,7.08
2023-02-23T02:11:36.046Z,7.10
2023-02-23T02:12:12.003Z,7.09
2023-02-23T02:12:46.845Z,7.10
2023-02-23T02:13:20.647Z,7.11
2023-02-23T02:14:12.916Z,7.13
2023-02-23T02:14:45.659Z,7.12
2023-02-23T02:15:17.768Z,7.15
2023-02-23T02:16:15.171Z,7.15
2023-02-23T02:17:02.556Z,7.14
2023-02-23T02:17:39.734Z,7.15
2023-02-23T02:18:24.113Z,7.15
2023-02-23T02:19:18.973Z,7.13
2023-02-23T02:20:13.615Z,7.16
2023-02-23T02:21:07.940Z,7.16
2023-02-23T02:21:57.789Z,7.19
2023-02-23T02:22:41.725Z,7.22
2023-02-23T02:23:44.961Z,7.21
2023-02-23T02:24:28.725Z,7.21
2023-02-23T02:25:43.565Z,7.16
2023-02-23T02:26:37.556Z,7.17
2023-02-23T02:27:33.689Z,7.14
2023-02-23T02:28:30.259Z,7.11
2023-02-23T02:29:20.365Z,7.11
2023-02-23T02:30:03.794Z,7.13
2023-02-23T02:30:55.701Z,7.16
2023-02-23T02:31:50.112Z,7.15
2023-02-23T02:32:39.672Z,7.19
2023-02-23T02:33:23.560Z,7.24
2023-02-23T02:33:59.145Z,7.21
2023-02-23T02:34:49.844Z,7.19
2023-02-23T02:35:40.032Z,7.18
2023-02-23T02:36:28.238Z,7.17
2023-02-23T02:37:26.439Z,7.16
2023-02-23T02:38:07.189Z,7.17
2023-02-23T02:38:55.726Z,7.17
2023-02-23T02:39:38.391Z,7.18
2023-02-23T02:40:32.573Z,7.14
2023-02-23T02:41:25.563Z,7.12
2023-02-23T02:42:21.556Z,7.13
2023-02-23T02:43:13.044Z,7.18
2023-02-23T02:43:56.523Z,7.20
2023-02-23T02:44:34.410Z,7.17
2023-02-23T02:45:14.460Z,7.17
2023-02-23T02:45:54.465Z,7.16
2023-02-23T02:46:34.748Z,7.17
2023-02-23T02:47:08.466Z,7.17
2023-02-23T02:47:57.332Z,7.18
2023-02-23T02:48:36.832Z,7.12
2023-02-23T02:49:50.885Z,7.16
2023-02-23T02:50:31.472Z,7.13
2023-02-23T02:51:10.075Z,7.16
2023-02-23T02:51:50.620Z,7.19
2023-02-23T02:52:45.349Z,7.21
2023-02-23T02:53:46.081Z,7.24
2023-02-23T02:54:23.833Z,7.26
2023-02-23T02:55:05.614Z,7.34
2023-02-23T02:55:42.706Z,7.36
2023-02-23T02:56:19.852Z,7.38
2023-02-23T02:56:54.569Z,7.30
2023-02-23T02:57:27.883Z,7.30
2023-02-23T02:58:02.361Z,7.26
2023-02-23T02:58:35.630Z,7.21
2023-02-23T02:59:29.519Z,7.22
2023-02-23T03:00:20.225Z,7.22
2023-02-23T03:01:10.261Z,7.14
2023-02-23T03:02:00.346Z,7.35
2023-02-23T03:02:54.032Z,7.17
2023-02-23T03:03:49.760Z,7.21
2023-02-23T03:04:43.332Z,7.22
2023-02-23T03:05:40.963Z,7.18
2023-02-23T03:06:31.309Z,7.10
2023-02-23T03:07:27.191Z,7.29
2023-02-23T03:08:39.614Z,7.15
2023-02-23T03:09:29.682Z,7.25
2023-02-23T03:10:27.772Z,7.12
2023-02-23T03:11:24.034Z,7.13
2023-02-23T03:12:28.195Z,7.06
2023-02-23T03:13:35.684Z,7.06
2023-02-23T03:14:47.764Z,7.02
2023-02-23T03:15:47.263Z,7.10
2023-02-23T03:16:45.585Z,7.08
2023-02-23T03:18:00.065Z,7.20
2023-02-23T03:18:59.113Z,7.12
2023-02-23T03:19:55.233Z,7.06
2023-02-23T03:20:54.505Z,7.05
2023-02-23T03:21:50.062Z,6.95
2023-02-23T03:23:12.666Z,6.94
2023-02-23T03:24:28.992Z,6.95
2023-02-23T03:25:32.748Z,6.92
2023-02-23T03:26:26.014Z,6.93
2023-02-23T03:27:27.738Z,6.96
2023-02-23T03:28:31.599Z,6.94
2023-02-23T03:29:31.739Z,6.98
2023-02-23T03:30:45.322Z,7.03
2023-02-23T03:32:03.481Z,6.94
2023-02-23T03:32:58.437Z,6.97
2023-02-23T03:33:58.723Z,7.02
2023-02-23T03:35:06.117Z,7.07
2023-02-23T03:36:18.468Z,7.07
2023-02-23T03:37:10.936Z,7.08
2023-02-23T03:38:06.527Z,7.09
2023-02-23T03:39:02.117Z,7.22
2023-02-23T03:39:57.477Z,7.18
2023-02-23T03:40:54.718Z,7.11
2023-02-23T03:41:45.926Z,7.11
2023-02-23T03:42:37.963Z,7.09
2023-02-23T03:43:32.456Z,7.02
2023-02-23T03:44:29.556Z,6.97
2023-02-23T03:45:24.475Z,6.92
2023-02-23T03:46:16.015Z,6.92
2023-02-23T03:47:06.727Z,6.89
2023-02-23T03:47:59.523Z,6.89
2023-02-23T03:48:50.561Z,6.83
2023-02-23T03:49:42.621Z,6.84
2023-02-23T03:50:49.667Z,6.87
2023-02-23T03:51:40.725Z,6.91
2023-02-23T03:52:35.664Z,6.91
2023-02-23T03:53:26.764Z,6.95
2023-02-23T03:54:42.492Z,6.93
2023-02-23T03:55:37.871Z,6.96
2023-02-23T03:56:28.334Z,7.03
2023-02-23T03:57:20.817Z,6.97
2023-02-23T03:58:13.502Z,6.85
2023-02-23T03:59:07.605Z,6.84
2023-02-23T04:00:01.244Z,6.99
2023-02-23T04:00:53.817Z,6.97
2023-02-23T04:01:45.688Z,6.96
2023-02-23T04:02:36.821Z,6.95
2023-02-23T04:03:28.403Z,6.91
2023-02-23T04:04:19.492Z,6.97
2023-02-23T04:05:10.201Z,6.97
2023-02-23T04:06:01.156Z,6.97
2023-02-23T04:06:58.316Z,6.97
2023-02-23T04:07:48.567Z,6.99
2023-02-23T04:08:40.431Z,7.01
2023-02-23T04:09:31.001Z,7.01
2023-02-23T04:10:22.760Z,6.98
2023-02-23T04:11:18.763Z,7.00
2023-02-23T04:12:27.569Z,6.98
2023-02-23T04:13:16.105Z,6.98
2023-02-23T04:13:50.125Z,6.97
2023-02-23T04:14:37.048Z,6.98
2023-02-23T04:15:15.671Z,6.94
2023-02-23T04:15:52.694Z,6.94
2023-02-23T04:16:24.430Z,6.94
2023-02-23T04:16:57.547Z,6.92
2023-02-23T04:17:29.572Z,7.06
2023-02-23T04:18:04.624Z,7.07
2023-02-23T04:18:38.689Z,7.06
2023-02-23T04:19:11.230Z,7.04
2023-02-23T04:19:53.169Z,7.02
2023-02-23T04:20:25.850Z,6.99
2023-02-23T04:20:58.247Z,7.01
2023-02-23T04:21:31.206Z,6.97
2023-02-23T04:22:03.045Z,6.94
2023-02-23T04:22:35.585Z,6.95
2023-02-23T04:23:07.684Z,6.98
2023-02-23T04:23:40.868Z,6.96
2023-02-23T04:24:12.515Z,6.96
2023-02-23T04:24:44.265Z,6.97
2023-02-23T04:25:17.506Z,6.98
2023-02-23T04:25:50.071Z,6.98
2023-02-23T04:26:22.278Z,6.93
2023-02-23T04:26:53.817Z,6.93
2023-02-23T04:27:25.410Z,6.97
2023-02-23T04:27:57.051Z,6.93
2023-02-23T04:28:29.492Z,6.97
2023-02-23T04:29:01.062Z,6.99
2023-02-23T04:29:32.622Z,7.04
2023-02-23T04:30:05.644Z,6.91
2023-02-23T04:30:37.243Z,6.95
2023-02-23T04:31:09.668Z,6.91
2023-02-23T04:31:44.348Z,6.87
2023-02-23T04:32:18.155Z,6.85
2023-02-23T04:32:49.885Z,6.81
2023-02-23T04:33:22.237Z,6.85
2023-02-23T04:33:53.884Z,6.82
2023-02-23T04:34:25.418Z,6.78
2023-02-23T04:34:56.956Z,6.77
2023-02-23T04:35:31.262Z,6.79
2023-02-23T04:36:02.985Z,6.81
2023-02-23T04:36:34.583Z,6.83
2023-02-23T04:37:06.124Z,6.86
2023-02-23T04:37:37.831Z,6.83
2023-02-23T04:38:09.425Z,6.77
2023-02-23T04:38:41.071Z,6.74
2023-02-23T04:39:12.638Z,6.77
2023-02-23T04:39:48.510Z,6.75
2023-02-23T04:40:20.223Z,6.81
2023-02-23T04:40:52.022Z,6.81
2023-02-23T04:41:23.622Z,6.78
2023-02-23T04:41:55.165Z,6.74
2023-02-23T04:42:26.824Z,6.76
2023-02-23T04:42:58.879Z,6.74
2023-02-23T04:43:30.444Z,6.71
2023-02-23T04:44:02.118Z,6.73
2023-02-23T04:44:33.673Z,6.76
2023-02-23T04:45:06.219Z,6.91
2023-02-23T04:45:37.852Z,6.89
2023-02-23T04:46:09.481Z,6.89
2023-02-23T04:46:41.075Z,6.88
2023-02-23T04:47:15.127Z,6.88
2023-02-23T04:47:49.222Z,6.87
2023-02-23T04:48:20.799Z,6.85
2023-02-23T04:48:54.939Z,6.91
2023-02-23T04:49:26.541Z,6.86
2023-02-23T04:49:58.078Z,6.92
2023-02-23T04:50:32.485Z,6.99
2023-02-23T04:51:04.618Z,6.96
2023-02-23T04:51:37.318Z,7.02
2023-02-23T04:52:09.204Z,6.99
2023-02-23T04:52:40.992Z,6.99
2023-02-23T04:53:12.566Z,6.99
2023-02-23T04:53:44.153Z,6.92
2023-02-23T04:54:15.738Z,6.91
2023-02-23T04:54:47.303Z,6.91
2023-02-23T04:55:24.147Z,6.85
2023-02-23T04:55:56.049Z,6.85
2023-02-23T04:56:30.418Z,6.87
2023-02-23T04:57:02.016Z,6.87
2023-02-23T04:57:34.712Z,6.86
2023-02-23T04:58:06.358Z,6.85
2023-02-23T04:58:38.024Z,6.81
2023-02-23T04:59:09.588Z,6.75
2023-02-23T04:59:41.541Z,6.75
2023-02-23T05:00:13.873Z,6.74
2023-02-23T05:00:45.487Z,6.74
2023-02-23T05:01:17.848Z,6.76
2023-02-23T05:01:49.771Z,6.78
2023-02-23T05:02:21.478Z,6.79
2023-02-23T05:02:53.098Z,6.83
2023-02-23T05:03:24.668Z,6.84
2023-02-23T05:03:56.251Z,6.89
2023-02-23T05:04:27.936Z,6.93
2023-02-23T05:04:59.571Z,6.85
2023-02-23T05:05:31.550Z,6.83
2023-02-23T05:06:03.756Z,6.81
2023-02-23T05:06:35.504Z,6.80
2023-02-23T05:07:07.026Z,6.80
2023-02-23T05:07:39.100Z,6.86
2023-02-23T05:08:10.683Z,6.88
2023-02-23T05:08:42.251Z,6.85
2023-02-23T05:09:14.020Z,6.80
2023-02-23T05:09:45.542Z,6.78
2023-02-23T05:10:17.118Z,6.74
2023-02-23T05:10:48.686Z,6.74
2023-02-23T05:11:20.467Z,6.73
2023-02-23T05:11:52.240Z,6.71
2023-02-23T05:12:23.816Z,6.70
2023-02-23T05:12:55.341Z,6.72
2023-02-23T05:13:26.911Z,6.70
2023-02-23T05:13:58.750Z,6.73
2023-02-23T05:14:30.329Z,6.71
2023-02-23T05:15:02.248Z,6.73
2023-02-23T05:15:33.857Z,6.71
2023-02-23T05:16:06.035Z,6.72
2023-02-23T05:16:38.211Z,6.71
2023-02-23T05:17:09.884Z,6.72
2023-02-23T05:17:42.236Z,6.73
2023-02-23T05:18:13.778Z,6.74
2023-02-23T05:18:45.359Z,6.78
2023-02-23T05:19:17.129Z,6.78
2023-02-23T05:19:48.768Z,6.78
2023-02-23T05:20:20.602Z,6.79
2023-02-23T05:20:53.476Z,6.83
2023-02-23T05:21:25.236Z,6.84
2023-02-23T05:21:56.884Z,6.85
2023-02-23T05:22:28.510Z,6.89
2023-02-23T05:23:00.074Z,6.90
2023-02-23T05:23:31.598Z,6.91
2023-02-23T05:24:03.190Z,6.94
2023-02-23T05:24:35.433Z,6.95
2023-02-23T05:25:08.774Z,6.96
2023-02-23T05:25:40.451Z,6.97
2023-02-23T05:26:13.023Z,6.97
2023-02-23T05:26:45.311Z,6.98
2023-02-23T05:27:17.829Z,6.98
2023-02-23T05:27:49.575Z,6.97
2023-02-23T05:28:21.828Z,6.95
2023-02-23T05:28:54.919Z,6.94
2023-02-23T05:29:26.624Z,6.91
2023-02-23T05:29:58.497Z,6.93
2023-02-23T05:30:30.214Z,6.91
2023-02-23T05:31:03.715Z,6.94
2023-02-23T05:31:35.894Z,6.89
2023-02-23T05:32:08.004Z,6.91
2023-02-23T05:32:39.636Z,6.91
2023-02-23T05:33:11.278Z,6.89
2023-02-23T05:33:43.070Z,6.92
2023-02-23T05:34:16.873Z,6.94
2023-02-23T05:34:48.504Z,6.95
2023-02-23T05:35:20.176Z,6.96
2023-02-23T05:35:51.738Z,6.94
2023-02-23T05:36:24.115Z,6.95
2023-02-23T05:36:55.632Z,6.91
2023-02-23T05:37:27.230Z,6.87
2023-02-23T05:37:58.742Z,6.84
2023-02-23T05:38:30.281Z,6.82
2023-02-23T05:39:01.846Z,6.82
2023-02-23T05:39:33.374Z,6.83
2023-02-23T05:40:05.533Z,6.78
2023-02-23T05:40:40.579Z,6.76
2023-02-23T05:41:14.783Z,6.79
2023-02-23T05:41:46.309Z,6.77
2023-02-23T05:42:18.262Z,6.77
2023-02-23T05:42:49.860Z,6.79
2023-02-23T05:43:21.419Z,6.78
2023-02-23T05:43:53.637Z,6.75
2023-02-23T05:44:25.259Z,6.74
2023-02-23T05:44:56.810Z,6.73
2023-02-23T05:45:28.374Z,6.72
2023-02-23T05:46:11.484Z,6.72
2023-02-23T05:46:43.120Z,6.74
2023-02-23T05:47:14.792Z,6.74
2023-02-23T05:47:46.297Z,6.74
2023-02-23T05:48:17.906Z,6.74
2023-02-23T05:48:50.392Z,6.74
2023-02-23T05:49:26.823Z,6.79
2023-02-23T05:49:58.633Z,6.77
2023-02-23T05:50:30.738Z,6.74
2023-02-23T05:51:06.646Z,6.74
2023-02-23T05:51:39.541Z,6.76
2023-02-23T05:52:11.398Z,6.76
2023-02-23T05:52:43.005Z,6.80
2023-02-23T05:53:14.557Z,6.77
2023-02-23T05:53:47.058Z,6.74
2023-02-23T05:54:18.804Z,6.76
2023-02-23T05:54:50.356Z,6.75
2023-02-23T05:55:21.895Z,6.71
2023-02-23T05:55:53.412Z,6.72
2023-02-23T05:56:26.065Z,6.73
2023-02-23T05:56:57.700Z,6.72
2023-02-23T05:57:29.268Z,6.75
2023-02-23T05:58:00.799Z,6.70
2023-02-23T05:58:32.521Z,6.72
2023-02-23T05:59:04.897Z,6.74
2023-02-23T05:59:36.518Z,6.70
2023-02-23T06:00:08.979Z,6.68
2023-02-23T06:00:40.563Z,6.68
2023-02-23T06:01:12.462Z,6.69
2023-02-23T06:01:44.088Z,6.68
2023-02-23T06:02:15.677Z,6.67
2023-02-23T06:02:47.399Z,6.70
2023-02-23T06:03:19.791Z,6.67
2023-02-23T06:03:51.704Z,6.72
2023-02-23T06:04:24.285Z,6.72
2023-02-23T06:04:56.054Z,6.86
2023-02-23T06:05:28.380Z,6.87
2023-02-23T06:06:02.641Z,6.88
2023-02-23T06:06:34.614Z,6.84
2023-02-23T06:07:06.147Z,6.75
2023-02-23T06:07:37.841Z,6.76
2023-02-23T06:08:09.493Z,6.77
2023-02-23T06:08:41.146Z,6.76
2023-02-23T06:09:12.976Z,6.73
2023-02-23T06:09:44.729Z,6.72
2023-02-23T06:10:16.734Z,6.71
2023-02-23T06:10:48.337Z,6.68
2023-02-23T06:11:20.360Z,6.66
2023-02-23T06:11:52.052Z,6.71
2023-02-23T06:12:23.870Z,6.67
2023-02-23T06:12:55.512Z,6.66
2023-02-23T06:13:27.898Z,6.70
2023-02-23T06:13:59.684Z,6.69
2023-02-23T06:14:32.352Z,6.70
2023-02-23T06:15:04.306Z,6.71
2023-02-23T06:15:36.027Z,6.69
2023-02-23T06:16:08.704Z,6.69
2023-02-23T06:16:40.469Z,6.67
2023-02-23T06:17:12.076Z,6.67
2023-02-23T06:17:43.590Z,6.66
2023-02-23T06:18:15.657Z,6.66
2023-02-23T06:18:47.386Z,6.67
2023-02-23T06:19:19.052Z,6.67
2023-02-23T06:19:50.772Z,6.64
2023-02-23T06:20:22.739Z,6.66
2023-02-23T06:20:54.685Z,6.68
2023-02-23T06:21:26.226Z,6.73
2023-02-23T06:21:57.770Z,6.68
2023-02-23T06:22:29.400Z,6.66
2023-02-23T06:23:01.034Z,6.66
2023-02-23T06:23:33.288Z,6.68
2023-02-23T06:24:05.948Z,6.68
2023-02-23T06:24:37.530Z,6.63
2023-02-23T06:25:12.778Z,6.67
2023-02-23T06:25:44.877Z,6.69
2023-02-23T06:26:16.594Z,6.66
2023-02-23T06:26:48.115Z,6.61
2023-02-23T06:27:19.761Z,6.61
2023-02-23T06:27:51.330Z,6.69
2023-02-23T06:28:23.606Z,6.63
2023-02-23T06:28:55.987Z,6.57
2023-02-23T06:29:27.885Z,6.62
2023-02-23T06:29:59.538Z,6.64
2023-02-23T06:30:31.180Z,6.65
2023-02-23T06:31:03.084Z,6.60
2023-02-23T06:31:35.921Z,6.60
2023-02-23T06:32:07.729Z,6.62
2023-02-23T06:32:39.624Z,6.64
2023-02-23T06:33:14.809Z,6.62
2023-02-23T06:33:46.360Z,6.61
2023-02-23T06:34:18.804Z,6.59
2023-02-23T06:34:50.556Z,6.61
2023-02-23T06:35:22.520Z,6.62
2023-02-23T06:35:54.811Z,6.63
2023-02-23T06:36:26.357Z,6.57
2023-02-23T06:36:57.882Z,6.57
2023-02-23T06:37:29.415Z,6.54
2023-02-23T06:38:01.715Z,6.59
2023-02-23T06:38:33.266Z,6.61
2023-02-23T06:39:04.942Z,6.60
2023-02-23T06:39:36.553Z,6.62
2023-02-23T06:40:08.861Z,6.60
2023-02-23T06:40:40.366Z,6.59
2023-02-23T06:41:12.367Z,6.59
2023-02-23T06:41:43.940Z,6.61
2023-02-23T06:42:15.519Z,6.60
2023-02-23T06:42:47.378Z,6.58
2023-02-23T06:43:19.019Z,6.55
2023-02-23T06:43:50.678Z,6.59
2023-02-23T06:44:22.690Z,6.62
2023-02-23T06:44:54.283Z,6.59
2023-02-23T06:45:26.350Z,6.56
2023-02-23T06:45:57.898Z,6.56
2023-02-23T06:46:29.537Z,6.53
2023-02-23T06:47:01.144Z,6.49
2023-02-23T06:47:33.665Z,6.54
2023-02-23T06:48:05.539Z,6.55
2023-02-23T06:48:37.879Z,6.57
2023-02-23T06:49:11.917Z,6.60
2023-02-23T06:49:43.528Z,6.56
2023-02-23T06:50:15.565Z,6.70
2023-02-23T06:50:47.122Z,6.66
2023-02-23T06:51:18.876Z,6.59
2023-02-23T06:51:50.593Z,6.58
2023-02-23T06:52:23.327Z,6.57
2023-02-23T06:52:56.653Z,6.64
2023-02-23T06:53:28.596Z,6.58
2023-02-23T06:54:02.526Z,6.60
2023-02-23T06:54:34.325Z,6.61
2023-02-23T06:55:07.998Z,6.70
2023-02-23T06:55:39.584Z,6.78
2023-02-23T06:56:12.527Z,6.69
2023-02-23T06:56:44.145Z,6.64
2023-02-23T06:57:16.500Z,6.61
2023-02-23T06:57:49.622Z,6.60
2023-02-23T06:58:21.209Z,6.59
2023-02-23T06:58:52.757Z,6.59
2023-02-23T06:59:24.355Z,6.60
2023-02-23T06:59:56.074Z,6.59
2023-02-23T07:00:27.699Z,6.59
2023-02-23T07:00:59.549Z,6.61
2023-02-23T07:01:31.512Z,6.58
2023-02-23T07:02:07.982Z,6.60
2023-02-23T07:02:39.506Z,6.57
2023-02-23T07:03:11.262Z,6.58
2023-02-23T07:03:43.030Z,6.59
2023-02-23T07:04:16.772Z,6.59
2023-02-23T07:04:48.566Z,6.64
2023-02-23T07:05:20.969Z,6.62
2023-02-23T07:05:53.865Z,6.59
2023-02-23T07:06:25.536Z,6.59
2023-02-23T07:06:57.229Z,6.57
2023-02-23T07:07:29.024Z,6.57
2023-02-23T07:08:00.597Z,6.60
2023-02-23T07:08:33.798Z,6.58
2023-02-23T07:09:05.844Z,6.59
2023-02-23T07:09:42.574Z,6.58
2023-02-23T07:10:14.074Z,6.57
2023-02-23T07:10:46.393Z,6.58
2023-02-23T07:11:20.291Z,6.59
2023-02-23T07:11:52.075Z,6.60
2023-02-23T07:12:23.703Z,6.61
2023-02-23T07:12:55.290Z,6.61
2023-02-23T07:13:26.814Z,6.59
2023-02-23T07:13:59.235Z,6.61
2023-02-23T07:14:31.024Z,6.59
2023-02-23T07:15:05.979Z,6.61
2023-02-23T07:15:37.585Z,6.59
2023-02-23T07:16:09.475Z,6.60
2023-02-23T07:16:41.227Z,6.58
2023-02-23T07:17:58.560Z,6.62
2023-02-23T07:18:30.156Z,6.61
2023-02-23T07:19:02.243Z,6.61
2023-02-23T07:19:33.812Z,6.63
2023-02-23T07:20:05.963Z,6.64
2023-02-23T07:20:37.704Z,6.64
2023-02-23T07:21:09.275Z,6.64
2023-02-23T07:21:41.093Z,6.63
2023-02-23T07:22:12.648Z,6.62
2023-02-23T07:22:44.534Z,6.77
2023-02-23T07:23:16.162Z,6.70
2023-02-23T07:23:50.536Z,6.66
2023-02-23T07:24:28.545Z,6.60
2023-02-23T07:25:00.114Z,6.72
2023-02-23T07:25:31.950Z,6.68
2023-02-23T07:26:03.803Z,6.65
2023-02-23T07:26:35.993Z,6.63
2023-02-23T07:27:07.768Z,6.62
2023-02-23T07:27:42.217Z,6.65
2023-02-23T07:28:14.655Z,6.72
2023-02-23T07:28:46.338Z,6.69
2023-02-23T07:29:17.992Z,6.64
2023-02-23T07:29:49.539Z,6.63
2023-02-23T07:30:24.426Z,6.64
2023-02-23T07:30:57.487Z,6.66
2023-02-23T07:31:29.189Z,6.68
2023-02-23T07:32:01.428Z,6.77
2023-02-23T07:32:33.144Z,6.70
2023-02-23T07:33:05.154Z,6.83
2023-02-23T07:33:36.725Z,6.71
2023-02-23T07:34:09.280Z,6.70
2023-02-23T07:34:41.083Z,6.67
2023-02-23T07:35:13.209Z,6.68
2023-02-23T07:35:45.298Z,6.65
2023-02-23T07:36:17.078Z,6.60
2023-02-23T07:36:48.835Z,6.61
2023-02-23T07:37:21.609Z,6.58
2023-02-23T07:37:53.908Z,6.66
2023-02-23T07:38:25.602Z,6.64
2023-02-23T07:38:57.512Z,6.59
2023-02-23T07:39:29.115Z,6.62
2023-02-23T07:40:01.446Z,6.70
2023-02-23T07:40:33.486Z,6.65
2023-02-23T07:41:05.760Z,6.60
2023-02-23T07:41:37.378Z,6.56
2023-02-23T07:42:10.815Z,6.54
2023-02-23T07:42:42.413Z,6.50
2023-02-23T07:43:14.791Z,6.50
2023-02-23T07:43:46.351Z,6.50
2023-02-23T07:44:18.258Z,6.54
2023-02-23T07:44:49.880Z,6.51
2023-02-23T07:45:21.435Z,6.50
2023-02-23T07:45:53.072Z,6.51
2023-02-23T07:46:25.336Z,6.60
2023-02-23T07:46:57.677Z,6.64
2023-02-23T07:47:31.203Z,6.64
2023-02-23T07:48:02.823Z,6.68
2023-02-23T07:48:34.465Z,6.67
2023-02-23T07:49:06.010Z,6.72
2023-02-23T07:49:37.626Z,6.76
2023-02-23T07:50:10.319Z,6.74
2023-02-23T07:50:42.702Z,6.70
2023-02-23T07:51:15.859Z,6.73
2023-02-23T07:51:47.503Z,6.78
2023-02-23T07:52:19.195Z,6.76
2023-02-23T07:52:51.445Z,6.72
2023-02-23T07:53:24.513Z,6.72
2023-02-23T07:53:56.226Z,6.73
2023-02-23T07:54:27.793Z,6.80
2023-02-23T07:54:59.326Z,6.80
2023-02-23T07:55:30.868Z,6.82
2023-02-23T07:56:04.081Z,6.84
2023-02-23T07:56:39.101Z,6.89
2023-02-23T07:57:11.393Z,6.93
2023-02-23T07:57:42.974Z,6.95
2023-02-23T07:58:14.513Z,6.86
2023-02-23T07:58:46.100Z,6.78
2023-02-23T07:59:17.790Z,6.81
2023-02-23T07:59:50.239Z,6.84
2023-02-23T08:00:21.980Z,6.81
2023-02-23T08:00:54.239Z,6.78
2023-02-23T08:01:26.152Z,6.83
2023-02-23T08:01:57.804Z,6.84
2023-02-23T08:02:29.618Z,6.85
2023-02-23T08:03:01.450Z,6.85
2023-02-23T08:03:33.425Z,6.80